sensor_id;sensor_type;location;lat;lon;timestamp;pressure;altitude;pressure_sealevel;temperature;humidity
60974;BME280;46846;51.528;5.076;2023-01-19T00:01:35;99628.22;;;0.10;79.25
60974;BME280;46846;51.528;5.076;2023-01-19T00:04:01;99615.13;;;0.10;79.65
60974;BME280;46846;51.528;5.076;2023-01-19T00:06:26;99615.97;;;0.13;79.54
60974;BME280;46846;51.528;5.076;2023-01-19T00:08:52;99613.41;;;0.10;79.89
60974;BME280;46846;51.528;5.076;2023-01-19T00:11:18;99626.41;;;0.17;79.84
60974;BME280;46846;51.528;5.076;2023-01-19T00:13:44;99629.88;;;0.19;79.64
60974;BME280;46846;51.528;5.076;2023-01-19T00:16:14;99634.19;;;0.23;79.35
60974;BME280;46846;51.528;5.076;2023-01-19T00:18:42;99631.53;;;0.26;79.25
60974;BME280;46846;51.528;5.076;2023-01-19T00:21:07;99628.16;;;0.16;79.58
60974;BME280;46846;51.528;5.076;2023-01-19T00:23:33;99621.19;;;0.17;79.46
60974;BME280;46846;51.528;5.076;2023-01-19T00:25:58;99622.88;;;0.21;79.20
60974;BME280;46846;51.528;5.076;2023-01-19T00:28:23;99621.19;;;0.13;79.73
60974;BME280;46846;51.528;5.076;2023-01-19T00:30:49;99617.69;;;0.18;79.83
60974;BME280;46846;51.528;5.076;2023-01-19T00:33:15;99622.88;;;0.21;79.45
60974;BME280;46846;51.528;5.076;2023-01-19T00:35:41;99616.09;;;0.04;79.88
60974;BME280;46846;51.528;5.076;2023-01-19T00:38:07;99608.16;;;0.10;80.15
60974;BME280;46846;51.528;5.076;2023-01-19T00:40:32;99604.66;;;0.11;79.86
60974;BME280;46846;51.528;5.076;2023-01-19T00:42:58;99607.31;;;0.08;79.98
60974;BME280;46846;51.528;5.076;2023-01-19T00:45:24;99605.56;;;0.10;79.53
60974;BME280;46846;51.528;5.076;2023-01-19T00:47:50;99609.88;;;0.13;79.99
60974;BME280;46846;51.528;5.076;2023-01-19T00:50:22;99613.34;;;0.13;79.31
60974;BME280;46846;51.528;5.076;2023-01-19T00:52:47;99611.56;;;0.19;79.13
60974;BME280;46846;51.528;5.076;2023-01-19T00:55:14;99617.75;;;0.11;79.77
60974;BME280;46846;51.528;5.076;2023-01-19T00:57:40;99618.69;;;0.04;80.04
60974;BME280;46846;51.528;5.076;2023-01-19T01:00:09;99616.97;;;0.03;80.14
60974;BME280;46846;51.528;5.076;2023-01-19T01:02:36;99613.47;;;0.04;80.26
60974;BME280;46846;51.528;5.076;2023-01-19T01:05:02;99621.25;;;0.09;79.59
60974;BME280;46846;51.528;5.076;2023-01-19T01:07:30;99620.34;;;0.11;80.05
60974;BME280;46846;51.528;5.076;2023-01-19T01:09:59;99622.09;;;0.12;79.98
60974;BME280;46846;51.528;5.076;2023-01-19T01:12:25;99615.09;;;0.15;79.37
60974;BME280;46846;51.528;5.076;2023-01-19T01:14:50;99610.75;;;0.13;79.68
60974;BME280;46846;51.528;5.076;2023-01-19T01:17:15;99617.69;;;0.16;79.59
60974;BME280;46846;51.528;5.076;2023-01-19T01:19:41;99616.84;;;0.12;79.69
60974;BME280;46846;51.528;5.076;2023-01-19T01:22:08;99622.94;;;0.15;79.67
60974;BME280;46846;51.528;5.076;2023-01-19T01:24:34;99630.88;;;0.08;79.55
60974;BME280;46846;51.528;5.076;2023-01-19T01:26:59;99630.00;;;0.06;80.33
60974;BME280;46846;51.528;5.076;2023-01-19T01:29:25;99633.50;;;0.08;80.26
60974;BME280;46846;51.528;5.076;2023-01-19T01:31:50;99643.78;;;0.21;79.94
60974;BME280;46846;51.528;5.076;2023-01-19T01:34:16;99649.91;;;0.20;79.83
60974;BME280;46846;51.528;5.076;2023-01-19T01:36:41;99635.13;;;0.17;79.60
60974;BME280;46846;51.528;5.076;2023-01-19T01:39:06;99661.53;;;-0.08;80.99
60974;BME280;46846;51.528;5.076;2023-01-19T01:41:32;99661.44;;;0.03;80.25
60974;BME280;46846;51.528;5.076;2023-01-19T01:43:59;99657.03;;;0.07;80.45
60974;BME280;46846;51.528;5.076;2023-01-19T01:46:27;99666.56;;;0.12;80.28
60974;BME280;46846;51.528;5.076;2023-01-19T01:49:08;99672.69;;;0.11;80.31
60974;BME280;46846;51.528;5.076;2023-01-19T01:51:49;99676.19;;;0.09;80.19
60974;BME280;46846;51.528;5.076;2023-01-19T01:54:28;99675.34;;;0.05;80.73
60974;BME280;46846;51.528;5.076;2023-01-19T01:56:59;99677.97;;;0.05;80.51
60974;BME280;46846;51.528;5.076;2023-01-19T01:59:36;99676.19;;;0.10;80.43
60974;BME280;46846;51.528;5.076;2023-01-19T02:02:08;99682.25;;;0.12;80.28
60974;BME280;46846;51.528;5.076;2023-01-19T02:05:04;99677.00;;;0.14;79.90
60974;BME280;46846;51.528;5.076;2023-01-19T02:07:50;99672.72;;;0.08;80.12
60974;BME280;46846;51.528;5.076;2023-01-19T02:10:35;99680.53;;;0.13;80.03
60974;BME280;46846;51.528;5.076;2023-01-19T02:13:19;99685.75;;;0.11;80.21
60974;BME280;46846;51.528;5.076;2023-01-19T02:15:47;99686.66;;;0.09;80.46
60974;BME280;46846;51.528;5.076;2023-01-19T02:18:14;99693.66;;;0.08;79.86
60974;BME280;46846;51.528;5.076;2023-01-19T02:20:44;99684.03;;;0.10;80.18
60974;BME280;46846;51.528;5.076;2023-01-19T02:23:16;99687.47;;;0.16;80.29
60974;BME280;46846;51.528;5.076;2023-01-19T02:25:44;99694.50;;;0.10;80.41
60974;BME280;46846;51.528;5.076;2023-01-19T02:28:10;99694.50;;;0.09;80.58
60974;BME280;46846;51.528;5.076;2023-01-19T02:30:37;99695.31;;;0.16;80.30
60974;BME280;46846;51.528;5.076;2023-01-19T02:33:04;99698.84;;;0.11;80.00
60974;BME280;46846;51.528;5.076;2023-01-19T02:35:29;99710.16;;;0.13;79.94
60974;BME280;46846;51.528;5.076;2023-01-19T02:37:56;99711.03;;;0.12;80.11
60974;BME280;46846;51.528;5.076;2023-01-19T02:40:23;99713.63;;;0.16;80.06
60974;BME280;46846;51.528;5.076;2023-01-19T02:42:51;99710.97;;;0.17;80.11
60974;BME280;46846;51.528;5.076;2023-01-19T02:45:22;99718.88;;;0.16;80.05
60974;BME280;46846;51.528;5.076;2023-01-19T02:47:51;99709.31;;;0.10;80.42
60974;BME280;46846;51.528;5.076;2023-01-19T02:50:38;99721.38;;;0.23;79.89
60974;BME280;46846;51.528;5.076;2023-01-19T02:53:15;99721.50;;;0.12;80.02
60974;BME280;46846;51.528;5.076;2023-01-19T02:55:51;99729.38;;;0.09;80.10
60974;BME280;46846;51.528;5.076;2023-01-19T03:01:18;99724.16;;;0.09;80.42
60974;BME280;46846;51.528;5.076;2023-01-19T03:04:32;99731.94;;;0.16;80.35
60974;BME280;46846;51.528;5.076;2023-01-19T03:06:47;99730.22;;;0.11;80.41
60974;BME280;46846;51.528;5.076;2023-01-19T03:15:00;99744.16;;;0.13;80.06
60974;BME280;46846;51.528;5.076;2023-01-19T03:17:28;99743.25;;;0.18;79.93
60974;BME280;46846;51.528;5.076;2023-01-19T03:19:56;99750.25;;;0.16;79.81
60974;BME280;46846;51.528;5.076;2023-01-19T03:22:25;99744.16;;;0.13;80.05
60974;BME280;46846;51.528;5.076;2023-01-19T03:24:53;99752.00;;;0.15;80.00
60974;BME280;46846;51.528;5.076;2023-01-19T03:27:32;99761.56;;;0.16;80.07
60974;BME280;46846;51.528;5.076;2023-01-19T03:30:07;99751.94;;;0.20;79.96
60974;BME280;46846;51.528;5.076;2023-01-19T03:32:40;99751.94;;;0.21;79.50
60974;BME280;46846;51.528;5.076;2023-01-19T03:35:11;99758.03;;;0.22;79.80
60974;BME280;46846;51.528;5.076;2023-01-19T03:37:39;99761.53;;;0.22;80.06
60974;BME280;46846;51.528;5.076;2023-01-19T03:40:07;99756.28;;;0.21;79.66
60974;BME280;46846;51.528;5.076;2023-01-19T03:42:34;99766.69;;;0.30;79.85
60974;BME280;46846;51.528;5.076;2023-01-19T03:45:01;99768.44;;;0.30;79.55
60974;BME280;46846;51.528;5.076;2023-01-19T03:47:27;99772.81;;;0.28;79.71
60974;BME280;46846;51.528;5.076;2023-01-19T03:49:53;99774.53;;;0.30;79.24
60974;BME280;46846;51.528;5.076;2023-01-19T03:52:30;99779.75;;;0.32;79.37
60974;BME280;46846;51.528;5.076;2023-01-19T03:55:03;99778.06;;;0.28;79.55
60974;BME280;46846;51.528;5.076;2023-01-19T03:57:30;99780.63;;;0.32;78.98
60974;BME280;46846;51.528;5.076;2023-01-19T03:59:55;99794.59;;;0.28;79.75
60974;BME280;46846;51.528;5.076;2023-01-19T04:02:24;99795.44;;;0.33;79.28
60974;BME280;46846;51.528;5.076;2023-01-19T04:04:49;99810.25;;;0.34;78.98
60974;BME280;46846;51.528;5.076;2023-01-19T04:07:15;99805.84;;;0.38;79.16
60974;BME280;46846;51.528;5.076;2023-01-19T04:09:40;99805.00;;;0.36;79.16
60974;BME280;46846;51.528;5.076;2023-01-19T04:12:06;99813.78;;;0.30;79.37
60974;BME280;46846;51.528;5.076;2023-01-19T04:14:31;99817.25;;;0.29;79.61
60974;BME280;46846;51.528;5.076;2023-01-19T04:16:57;99825.19;;;0.23;79.70
60974;BME280;46846;51.528;5.076;2023-01-19T04:19:22;99825.16;;;0.24;79.25
60974;BME280;46846;51.528;5.076;2023-01-19T04:21:48;99826.94;;;0.24;79.62
60974;BME280;46846;51.528;5.076;2023-01-19T04:24:14;99830.38;;;0.26;79.24
60974;BME280;46846;51.528;5.076;2023-01-19T04:26:40;99818.19;;;0.26;79.47
60974;BME280;46846;51.528;5.076;2023-01-19T04:29:05;99826.00;;;0.28;79.25
60974;BME280;46846;51.528;5.076;2023-01-19T04:31:30;99818.19;;;0.25;79.35
60974;BME280;46846;51.528;5.076;2023-01-19T04:33:56;99812.91;;;0.28;79.29
60974;BME280;46846;51.528;5.076;2023-01-19T04:36:22;99804.28;;;0.18;79.30
60974;BME280;46846;51.528;5.076;2023-01-19T04:38:47;99803.47;;;0.11;79.89
60974;BME280;46846;51.528;5.076;2023-01-19T04:41:13;99793.81;;;0.18;79.70
60974;BME280;46846;51.528;5.076;2023-01-19T04:43:38;99768.56;;;0.12;80.26
60974;BME280;46846;51.528;5.076;2023-01-19T04:46:05;99754.56;;;0.20;79.95
60974;BME280;46846;51.528;5.076;2023-01-19T04:48:30;99748.47;;;0.19;79.52
60974;BME280;46846;51.528;5.076;2023-01-19T04:50:56;99753.69;;;0.21;79.89
60974;BME280;46846;51.528;5.076;2023-01-19T04:53:21;99746.69;;;0.23;79.81
60974;BME280;46846;51.528;5.076;2023-01-19T04:55:46;99749.28;;;0.26;79.25
60974;BME280;46846;51.528;5.076;2023-01-19T04:58:16;99751.84;;;0.34;79.25
60974;BME280;46846;51.528;5.076;2023-01-19T05:00:42;99745.75;;;0.30;79.37
60974;BME280;46846;51.528;5.076;2023-01-19T05:03:07;99748.28;;;0.36;79.34
60974;BME280;46846;51.528;5.076;2023-01-19T05:05:33;99748.28;;;0.36;79.04
60974;BME280;46846;51.528;5.076;2023-01-19T05:07:58;99758.75;;;0.39;79.09
60974;BME280;46846;51.528;5.076;2023-01-19T05:10:24;99768.31;;;0.40;79.23
60974;BME280;46846;51.528;5.076;2023-01-19T05:12:50;99791.84;;;0.44;79.14
60974;BME280;46846;51.528;5.076;2023-01-19T05:15:15;99796.19;;;0.45;78.88
60974;BME280;46846;51.528;5.076;2023-01-19T05:17:41;99818.16;;;0.31;79.18
60974;BME280;46846;51.528;5.076;2023-01-19T05:20:09;99811.94;;;0.42;78.75
60974;BME280;46846;51.528;5.076;2023-01-19T05:22:34;99804.97;;;0.42;79.27
60974;BME280;46846;51.528;5.076;2023-01-19T05:25:00;99804.13;;;0.38;78.89
60974;BME280;46846;51.528;5.076;2023-01-19T05:27:26;99805.06;;;0.30;78.80
60974;BME280;46846;51.528;5.076;2023-01-19T05:29:51;99818.22;;;0.20;79.25
60974;BME280;46846;51.528;5.076;2023-01-19T05:32:16;99807.69;;;0.28;79.50
60974;BME280;46846;51.528;5.076;2023-01-19T05:34:42;99808.56;;;0.30;79.48
60974;BME280;46846;51.528;5.076;2023-01-19T05:37:07;99804.25;;;0.23;79.53
60974;BME280;46846;51.528;5.076;2023-01-19T05:39:32;99810.38;;;0.20;79.84
60974;BME280;46846;51.528;5.076;2023-01-19T05:41:58;99809.47;;;0.26;79.17
60974;BME280;46846;51.528;5.076;2023-01-19T05:44:23;99807.69;;;0.28;79.71
60974;BME280;46846;51.528;5.076;2023-01-19T05:46:48;99804.22;;;0.26;78.98
60974;BME280;46846;51.528;5.076;2023-01-19T05:49:14;99811.28;;;0.18;79.78
60974;BME280;46846;51.528;5.076;2023-01-19T05:51:39;99817.34;;;0.21;79.43
60974;BME280;46846;51.528;5.076;2023-01-19T05:54:12;99804.22;;;0.28;79.41
60974;BME280;46846;51.528;5.076;2023-01-19T05:56:37;99822.53;;;0.28;79.16
60974;BME280;46846;51.528;5.076;2023-01-19T05:59:03;99826.84;;;0.32;79.67
60974;BME280;46846;51.528;5.076;2023-01-19T06:01:29;99828.59;;;0.31;78.93
60974;BME280;46846;51.528;5.076;2023-01-19T06:03:54;99816.41;;;0.30;79.17
60974;BME280;46846;51.528;5.076;2023-01-19T06:06:20;99822.50;;;0.31;79.37
60974;BME280;46846;51.528;5.076;2023-01-19T06:08:45;99826.88;;;0.30;79.08
60974;BME280;46846;51.528;5.076;2023-01-19T06:11:11;99832.06;;;0.33;79.53
60974;BME280;46846;51.528;5.076;2023-01-19T06:13:36;99833.81;;;0.33;78.90
60974;BME280;46846;51.528;5.076;2023-01-19T06:16:04;99835.53;;;0.37;79.03
60974;BME280;46846;51.528;5.076;2023-01-19T06:18:30;99829.41;;;0.36;78.93
60974;BME280;46846;51.528;5.076;2023-01-19T06:20:55;99836.38;;;0.39;78.76
60974;BME280;46846;51.528;5.076;2023-01-19T06:23:29;99840.75;;;0.38;79.00
60974;BME280;46846;51.528;5.076;2023-01-19T06:25:55;99844.19;;;0.45;78.66
60974;BME280;46846;51.528;5.076;2023-01-19T06:28:21;99830.25;;;0.42;79.04
60974;BME280;46846;51.528;5.076;2023-01-19T06:30:54;99830.25;;;0.40;78.94
60974;BME280;46846;51.528;5.076;2023-01-19T06:33:19;99816.38;;;0.35;78.58
60974;BME280;46846;51.528;5.076;2023-01-19T06:35:47;99826.00;;;0.28;78.89
60974;BME280;46846;51.528;5.076;2023-01-19T06:38:13;99825.16;;;0.26;79.08
60974;BME280;46846;51.528;5.076;2023-01-19T06:40:39;99836.50;;;0.23;79.38
60974;BME280;46846;51.528;5.076;2023-01-19T06:43:05;99831.28;;;0.25;79.52
60974;BME280;46846;51.528;5.076;2023-01-19T06:45:30;99841.75;;;0.25;78.95
60974;BME280;46846;51.528;5.076;2023-01-19T06:47:56;99841.69;;;0.30;79.37
60974;BME280;46846;51.528;5.076;2023-01-19T06:50:21;99849.50;;;0.33;78.86
60974;BME280;46846;51.528;5.076;2023-01-19T06:52:49;99846.06;;;0.29;78.72
60974;BME280;46846;51.528;5.076;2023-01-19T06:55:15;99850.44;;;0.29;79.33
60974;BME280;46846;51.528;5.076;2023-01-19T06:57:40;99860.88;;;0.32;79.10
60974;BME280;46846;51.528;5.076;2023-01-19T07:00:06;99855.63;;;0.33;79.17
60974;BME280;46846;51.528;5.076;2023-01-19T07:02:42;99866.97;;;0.32;78.97
60974;BME280;46846;51.528;5.076;2023-01-19T07:05:08;99865.28;;;0.25;79.49
60974;BME280;46846;51.528;5.076;2023-01-19T07:07:35;99866.97;;;0.32;79.07
60974;BME280;46846;51.528;5.076;2023-01-19T07:10:05;99873.94;;;0.33;79.37
60974;BME280;46846;51.528;5.076;2023-01-19T07:12:31;99877.44;;;0.32;79.30
60974;BME280;46846;51.528;5.076;2023-01-19T07:14:56;99882.69;;;0.34;78.83
60974;BME280;46846;51.528;5.076;2023-01-19T07:17:22;99879.13;;;0.36;78.83
60974;BME280;46846;51.528;5.076;2023-01-19T07:19:47;99885.25;;;0.35;78.80
60974;BME280;46846;51.528;5.076;2023-01-19T07:22:13;99879.13;;;0.39;78.78
60974;BME280;46846;51.528;5.076;2023-01-19T07:24:38;99877.47;;;0.28;79.43
60974;BME280;46846;51.528;5.076;2023-01-19T07:27:03;99885.28;;;0.34;78.86
60974;BME280;46846;51.528;5.076;2023-01-19T07:29:29;99893.94;;;0.40;78.98
60974;BME280;46846;51.528;5.076;2023-01-19T07:31:55;99894.81;;;0.41;78.57
60974;BME280;46846;51.528;5.076;2023-01-19T07:34:21;99901.81;;;0.37;78.79
60974;BME280;46846;51.528;5.076;2023-01-19T07:36:46;99913.13;;;0.41;79.23
60974;BME280;46846;51.528;5.076;2023-01-19T07:39:12;99907.97;;;0.35;79.18
60974;BME280;46846;51.528;5.076;2023-01-19T07:41:37;99915.78;;;0.36;79.05
60974;BME280;46846;51.528;5.076;2023-01-19T07:44:03;99915.84;;;0.29;79.35
60974;BME280;46846;51.528;5.076;2023-01-19T07:46:28;99920.16;;;0.33;79.16
60974;BME280;46846;51.528;5.076;2023-01-19T07:48:54;99922.78;;;0.34;79.29
60974;BME280;46846;51.528;5.076;2023-01-19T07:51:19;99926.28;;;0.33;78.92
60974;BME280;46846;51.528;5.076;2023-01-19T07:53:45;99937.63;;;0.34;79.09
60974;BME280;46846;51.528;5.076;2023-01-19T07:56:11;99945.47;;;0.29;79.30
60974;BME280;46846;51.528;5.076;2023-01-19T07:58:37;99946.41;;;0.26;79.39
60974;BME280;46846;51.528;5.076;2023-01-19T08:01:10;99958.56;;;0.32;79.27
60974;BME280;46846;51.528;5.076;2023-01-19T08:03:36;99945.53;;;0.26;78.97
60974;BME280;46846;51.528;5.076;2023-01-19T08:06:02;99949.94;;;0.15;79.34
60974;BME280;46846;51.528;5.076;2023-01-19T08:08:30;99965.56;;;0.30;79.81
60974;BME280;46846;51.528;5.076;2023-01-19T08:10:56;99972.47;;;0.37;79.15
60974;BME280;46846;51.528;5.076;2023-01-19T08:13:21;99968.19;;;0.29;79.15
60974;BME280;46846;51.528;5.076;2023-01-19T08:15:51;99968.19;;;0.27;78.91
60974;BME280;46846;51.528;5.076;2023-01-19T08:18:16;99977.81;;;0.23;79.55
60974;BME280;46846;51.528;5.076;2023-01-19T08:20:42;99971.72;;;0.21;79.54
60974;BME280;46846;51.528;5.076;2023-01-19T08:23:08;99971.72;;;0.18;79.93
60974;BME280;46846;51.528;5.076;2023-01-19T08:25:35;99979.59;;;0.15;79.89
60974;BME280;46846;51.528;5.076;2023-01-19T08:28:03;99988.28;;;0.17;79.60
60974;BME280;46846;51.528;5.076;2023-01-19T08:30:29;99989.19;;;0.15;79.58
60974;BME280;46846;51.528;5.076;2023-01-19T08:32:55;99989.22;;;0.13;80.08
60974;BME280;46846;51.528;5.076;2023-01-19T08:35:38;99984.81;;;0.17;79.50
60974;BME280;46846;51.528;5.076;2023-01-19T08:38:05;99992.69;;;0.13;79.96
60974;BME280;46846;51.528;5.076;2023-01-19T08:40:32;99993.56;;;0.14;80.07
60974;BME280;46846;51.528;5.076;2023-01-19T08:42:59;99993.56;;;0.14;79.82
60974;BME280;46846;51.528;5.076;2023-01-19T08:45:30;99997.88;;;0.18;79.79
60974;BME280;46846;51.528;5.076;2023-01-19T08:47:56;100001.34;;;0.25;79.32
60974;BME280;46846;51.528;5.076;2023-01-19T08:50:25;100011.81;;;0.25;79.47
60974;BME280;46846;51.528;5.076;2023-01-19T08:52:51;100012.72;;;0.19;80.10
60974;BME280;46846;51.528;5.076;2023-01-19T08:55:17;100005.72;;;0.21;79.71
60974;BME280;46846;51.528;5.076;2023-01-19T08:57:42;100016.16;;;0.26;79.11
60974;BME280;46846;51.528;5.076;2023-01-19T09:00:09;100015.31;;;0.24;79.58
60974;BME280;46846;51.528;5.076;2023-01-19T09:02:35;100017.03;;;0.31;79.08
60974;BME280;46846;51.528;5.076;2023-01-19T09:05:01;100025.78;;;0.21;79.16
60974;BME280;46846;51.528;5.076;2023-01-19T09:07:28;100026.69;;;0.17;79.53
60974;BME280;46846;51.528;5.076;2023-01-19T09:09:54;100032.75;;;0.22;79.81
60974;BME280;46846;51.528;5.076;2023-01-19T09:12:19;100032.81;;;0.16;80.08
60974;BME280;46846;51.528;5.076;2023-01-19T09:14:45;100032.78;;;0.19;79.68
60974;BME280;46846;51.528;5.076;2023-01-19T09:17:10;100030.13;;;0.25;79.57
60974;BME280;46846;51.528;5.076;2023-01-19T09:19:36;100030.06;;;0.33;79.29
60974;BME280;46846;51.528;5.076;2023-01-19T09:22:01;100037.94;;;0.33;79.22
60974;BME280;46846;51.528;5.076;2023-01-19T09:24:27;100029.19;;;0.38;78.90
60974;BME280;46846;51.528;5.076;2023-01-19T09:26:52;100041.41;;;0.38;79.07
60974;BME280;46846;51.528;5.076;2023-01-19T09:29:18;100043.13;;;0.40;79.02
60974;BME280;46846;51.528;5.076;2023-01-19T09:31:43;100040.59;;;0.26;79.26
60974;BME280;46846;51.528;5.076;2023-01-19T09:34:09;100045.84;;;0.23;79.45
60974;BME280;46846;51.528;5.076;2023-01-19T09:36:35;100048.44;;;0.22;79.27
60974;BME280;46846;51.528;5.076;2023-01-19T09:39:02;100051.06;;;0.26;79.56
60974;BME280;46846;51.528;5.076;2023-01-19T09:41:28;100050.16;;;0.29;79.28
60974;BME280;46846;51.528;5.076;2023-01-19T09:43:58;100053.69;;;0.23;79.55
60974;BME280;46846;51.528;5.076;2023-01-19T09:48:56;100052.78;;;0.31;79.39
60974;BME280;46846;51.528;5.076;2023-01-19T09:51:26;100055.38;;;0.29;80.11
60974;BME280;46846;51.528;5.076;2023-01-19T09:56:40;100071.09;;;0.31;79.92
60974;BME280;46846;51.528;5.076;2023-01-19T09:59:28;100066.78;;;0.26;79.98
60974;BME280;46846;51.528;5.076;2023-01-19T10:02:25;100063.28;;;0.26;79.84
60974;BME280;46846;51.528;5.076;2023-01-19T10:10:19;100074.63;;;0.17;79.79
60974;BME280;46846;51.528;5.076;2023-01-19T10:18:35;100084.22;;;0.18;79.63
60974;BME280;46846;51.528;5.076;2023-01-19T10:26:12;100091.25;;;0.13;80.13
60974;BME280;46846;51.528;5.076;2023-01-19T10:28:39;100094.69;;;0.21;80.50
60974;BME280;46846;51.528;5.076;2023-01-19T10:31:05;100088.59;;;0.24;80.51
60974;BME280;46846;51.528;5.076;2023-01-19T10:33:34;100088.59;;;0.24;80.25
60974;BME280;46846;51.528;5.076;2023-01-19T10:36:02;100090.31;;;0.23;80.37
60974;BME280;46846;51.528;5.076;2023-01-19T10:38:28;100089.44;;;0.24;79.96
60974;BME280;46846;51.528;5.076;2023-01-19T10:41:01;100092.06;;;0.23;80.28
60974;BME280;46846;51.528;5.076;2023-01-19T10:43:45;100098.16;;;0.22;80.73
60974;BME280;46846;51.528;5.076;2023-01-19T10:46:17;100092.94;;;0.25;80.41
60974;BME280;46846;51.528;5.076;2023-01-19T10:48:48;100085.94;;;0.29;80.35
60974;BME280;46846;51.528;5.076;2023-01-19T10:51:14;100087.69;;;0.25;80.98
60974;BME280;46846;51.528;5.076;2023-01-19T10:53:42;100085.06;;;0.28;81.07
60974;BME280;46846;51.528;5.076;2023-01-19T10:56:13;100084.19;;;0.29;80.90
60974;BME280;46846;51.528;5.076;2023-01-19T10:58:40;100081.56;;;0.32;80.30
60974;BME280;46846;51.528;5.076;2023-01-19T11:01:23;100083.31;;;0.33;80.37
60974;BME280;46846;51.528;5.076;2023-01-19T11:03:50;100085.03;;;0.36;80.20
60974;BME280;46846;51.528;5.076;2023-01-19T11:06:26;100084.13;;;0.40;80.06
60974;BME280;46846;51.528;5.076;2023-01-19T11:08:52;100085.91;;;0.32;80.19
60974;BME280;46846;51.528;5.076;2023-01-19T11:11:19;100085.03;;;0.33;79.91
60974;BME280;46846;51.528;5.076;2023-01-19T11:14:02;100084.19;;;0.29;80.03
60974;BME280;46846;51.528;5.076;2023-01-19T11:16:30;100095.47;;;0.37;80.21
60974;BME280;46846;51.528;5.076;2023-01-19T11:18:59;100095.47;;;0.37;80.12
60974;BME280;46846;51.528;5.076;2023-01-19T11:21:28;100095.50;;;0.36;79.88
60974;BME280;46846;51.528;5.076;2023-01-19T11:24:02;100086.78;;;0.32;80.25
60974;BME280;46846;51.528;5.076;2023-01-19T11:26:32;100089.44;;;0.28;80.16
60974;BME280;46846;51.528;5.076;2023-01-19T11:28:59;100092.03;;;0.32;80.06
60974;BME280;46846;51.528;5.076;2023-01-19T11:34:03;100085.88;;;0.38;79.90
60974;BME280;46846;51.528;5.076;2023-01-19T11:36:32;100087.63;;;0.42;79.79
60974;BME280;46846;51.528;5.076;2023-01-19T11:39:22;100088.50;;;0.38;80.33
60974;BME280;46846;51.528;5.076;2023-01-19T11:41:50;100090.25;;;0.37;80.02
60974;BME280;46846;51.528;5.076;2023-01-19T11:44:23;100086.75;;;0.40;80.32
60974;BME280;46846;51.528;5.076;2023-01-19T11:46:54;100080.63;;;0.41;79.88
60974;BME280;46846;51.528;5.076;2023-01-19T11:49:28;100091.09;;;0.44;79.90
60974;BME280;46846;51.528;5.076;2023-01-19T11:52:08;100085.00;;;0.40;80.38
60974;BME280;46846;51.528;5.076;2023-01-19T11:54:53;100092.88;;;0.42;80.21
60974;BME280;46846;51.528;5.076;2023-01-19T11:57:22;100089.38;;;0.42;80.15
60974;BME280;46846;51.528;5.076;2023-01-19T11:59:47;100083.25;;;0.46;79.92
60974;BME280;46846;51.528;5.076;2023-01-19T12:02:25;100091.94;;;0.45;80.17
60974;BME280;46846;51.528;5.076;2023-01-19T12:04:55;100084.97;;;0.50;79.83
60974;BME280;46846;51.528;5.076;2023-01-19T12:07:27;100086.72;;;0.48;80.03
60974;BME280;46846;51.528;5.076;2023-01-19T12:10:01;100088.47;;;0.50;79.79
60974;BME280;46846;51.528;5.076;2023-01-19T12:12:32;100078.84;;;0.51;80.18
60974;BME280;46846;51.528;5.076;2023-01-19T12:17:46;100088.47;;;0.43;80.49
60974;BME280;46846;51.528;5.076;2023-01-19T12:20:37;100082.44;;;0.30;80.37
60974;BME280;46846;51.528;5.076;2023-01-19T12:28:17;100084.97;;;0.44;79.93
60974;BME280;46846;51.528;5.076;2023-01-19T12:30:44;100080.66;;;0.36;80.16
60974;BME280;46846;51.528;5.076;2023-01-19T12:33:33;100081.53;;;0.35;80.41
60974;BME280;46846;51.528;5.076;2023-01-19T12:38:43;100084.97;;;0.48;79.76
60974;BME280;46846;51.528;5.076;2023-01-19T12:41:20;100090.13;;;0.59;80.35
60974;BME280;46846;51.528;5.076;2023-01-19T12:49:38;100077.13;;;0.45;80.34
60974;BME280;46846;51.528;5.076;2023-01-19T12:55:00;100080.69;;;0.35;80.50
60974;BME280;46846;51.528;5.076;2023-01-19T12:57:39;100082.41;;;0.40;80.73
60974;BME280;46846;51.528;5.076;2023-01-19T13:02:48;100080.66;;;0.38;80.46
60974;BME280;46846;51.528;5.076;2023-01-19T13:21:38;100080.56;;;0.55;80.34
60974;BME280;46846;51.528;5.076;2023-01-19T13:24:08;100080.53;;;0.58;80.51
60974;BME280;46846;51.528;5.076;2023-01-19T13:26:39;100085.78;;;0.58;79.91
60974;BME280;46846;51.528;5.076;2023-01-19T13:29:11;100073.56;;;0.57;80.24
60974;BME280;46846;51.528;5.076;2023-01-19T13:31:39;100084.94;;;0.54;80.35
60974;BME280;46846;51.528;5.076;2023-01-19T13:34:11;100082.34;;;0.53;80.54
60974;BME280;46846;51.528;5.076;2023-01-19T13:36:45;100087.56;;;0.50;80.64
60974;BME280;46846;51.528;5.076;2023-01-19T13:39:15;100086.66;;;0.59;80.40
60974;BME280;46846;51.528;5.076;2023-01-19T13:41:42;100082.31;;;0.56;80.02
60974;BME280;46846;51.528;5.076;2023-01-19T13:44:13;100077.94;;;0.58;80.33
60974;BME280;46846;51.528;5.076;2023-01-19T13:46:43;100084.03;;;0.56;80.65
60974;BME280;46846;51.528;5.076;2023-01-19T13:49:19;100082.25;;;0.67;80.13
60974;BME280;46846;51.528;5.076;2023-01-19T13:52:24;100085.78;;;0.61;79.80
60974;BME280;46846;51.528;5.076;2023-01-19T13:55:01;100083.97;;;0.71;79.46
60974;BME280;46846;51.528;5.076;2023-01-19T13:57:33;100086.59;;;0.66;79.63
60974;BME280;46846;51.528;5.076;2023-01-19T14:02:39;100083.97;;;0.76;79.88
60974;BME280;46846;51.528;5.076;2023-01-19T14:07:37;100083.16;;;0.60;79.96
60974;BME280;46846;51.528;5.076;2023-01-19T14:10:12;100081.44;;;0.60;79.89
60974;BME280;46846;51.528;5.076;2023-01-19T14:12:38;100091.00;;;0.63;80.03
60974;BME280;46846;51.528;5.076;2023-01-19T14:15:05;100097.13;;;0.63;80.38
60974;BME280;46846;51.528;5.076;2023-01-19T14:17:37;100092.75;;;0.59;80.67
60974;BME280;46846;51.528;5.076;2023-01-19T14:20:02;100102.38;;;0.57;80.57
60974;BME280;46846;51.528;5.076;2023-01-19T14:22:44;100105.00;;;0.59;80.50
60974;BME280;46846;51.528;5.076;2023-01-19T14:25:29;100111.06;;;0.68;79.99
60974;BME280;46846;51.528;5.076;2023-01-19T14:28:27;100113.69;;;0.61;80.35
60974;BME280;46846;51.528;5.076;2023-01-19T14:31:00;100118.88;;;0.70;80.43
60974;BME280;46846;51.528;5.076;2023-01-19T14:33:39;100120.66;;;0.68;80.18